sensor_id;sensor_type;location;lat;lon;timestamp;P1;durP1;ratioP1;P2;durP2;ratioP2
5333;SDS011;2689;50.954;7.116;2022-11-11T00:01:32;9.40;;;4.90;;
5333;SDS011;2689;50.954;7.116;2022-11-11T00:03:59;10.07;;;5.20;;
5333;SDS011;2689;50.954;7.116;2022-11-11T00:06:27;11.23;;;5.13;;
5333;SDS011;2689;50.954;7.116;2022-11-11T00:08:54;10.03;;;4.57;;
5333;SDS011;2689;50.954;7.116;2022-11-11T00:11:20;7.73;;;5.20;;
5333;SDS011;2689;50.954;7.116;2022-11-11T00:13:47;10.90;;;4.77;;
5333;SDS011;2689;50.954;7.116;2022-11-11T00:16:14;14.60;;;6.03;;
5333;SDS011;2689;50.954;7.116;2022-11-11T00:18:43;8.00;;;4.63;;
5333;SDS011;2689;50.954;7.116;2022-11-11T00:21:30;5.03;;;3.83;;
5333;SDS011;2689;50.954;7.116;2022-11-11T00:24:18;7.67;;;4.50;;
5333;SDS011;2689;50.954;7.116;2022-11-11T00:27:04;8.23;;;4.77;;
5333;SDS011;2689;50.954;7.116;2022-11-11T00:29:31;7.27;;;5.07;;
5333;SDS011;2689;50.954;7.116;2022-11-11T00:31:58;12.70;;;5.27;;
5333;SDS011;2689;50.954;7.116;2022-11-11T00:34:42;7.73;;;4.73;;
5333;SDS011;2689;50.954;7.116;2022-11-11T00:37:30;7.43;;;4.70;;
5333;SDS011;2689;50.954;7.116;2022-11-11T00:39:56;6.83;;;4.50;;
5333;SDS011;2689;50.954;7.116;2022-11-11T00:42:23;6.17;;;4.37;;
5333;SDS011;2689;50.954;7.116;2022-11-11T00:44:50;8.97;;;4.60;;
5333;SDS011;2689;50.954;7.116;2022-11-11T00:47:17;6.03;;;4.27;;
5333;SDS011;2689;50.954;7.116;2022-11-11T00:50:01;10.27;;;4.70;;
5333;SDS011;2689;50.954;7.116;2022-11-11T00:52:49;8.00;;;5.03;;
5333;SDS011;2689;50.954;7.116;2022-11-11T00:55:16;8.27;;;4.70;;
5333;SDS011;2689;50.954;7.116;2022-11-11T00:57:42;9.03;;;5.20;;
5333;SDS011;2689;50.954;7.116;2022-11-11T01:00:10;7.03;;;4.43;;
5333;SDS011;2689;50.954;7.116;2022-11-11T01:02:37;12.73;;;5.00;;
5333;SDS011;2689;50.954;7.116;2022-11-11T01:05:04;9.77;;;5.47;;
5333;SDS011;2689;50.954;7.116;2022-11-11T01:07:31;10.73;;;4.50;;
5333;SDS011;2689;50.954;7.116;2022-11-11T01:09:59;8.70;;;5.40;;
5333;SDS011;2689;50.954;7.116;2022-11-11T01:12:26;7.47;;;4.47;;
5333;SDS011;2689;50.954;7.116;2022-11-11T01:14:53;10.30;;;5.90;;
5333;SDS011;2689;50.954;7.116;2022-11-11T01:17:20;6.87;;;4.70;;
5333;SDS011;2689;50.954;7.116;2022-11-11T01:19:46;10.43;;;4.87;;
5333;SDS011;2689;50.954;7.116;2022-11-11T01:22:13;7.53;;;4.63;;
5333;SDS011;2689;50.954;7.116;2022-11-11T01:24:40;8.50;;;4.50;;
5333;SDS011;2689;50.954;7.116;2022-11-11T01:27:08;7.17;;;4.80;;
5333;SDS011;2689;50.954;7.116;2022-11-11T01:29:35;11.20;;;5.50;;
5333;SDS011;2689;50.954;7.116;2022-11-11T01:32:01;8.03;;;5.13;;
5333;SDS011;2689;50.954;7.116;2022-11-11T01:34:28;7.93;;;4.63;;
5333;SDS011;2689;50.954;7.116;2022-11-11T01:36:55;9.80;;;5.40;;
5333;SDS011;2689;50.954;7.116;2022-11-11T01:39:22;9.77;;;4.97;;
5333;SDS011;2689;50.954;7.116;2022-11-11T01:41:48;9.63;;;4.37;;
5333;SDS011;2689;50.954;7.116;2022-11-11T01:47:10;9.23;;;5.40;;
5333;SDS011;2689;50.954;7.116;2022-11-11T01:49:37;10.93;;;4.80;;
5333;SDS011;2689;50.954;7.116;2022-11-11T01:52:12;13.30;;;5.80;;
5333;SDS011;2689;50.954;7.116;2022-11-11T01:54:42;7.17;;;5.00;;
5333;SDS011;2689;50.954;7.116;2022-11-11T01:57:12;8.10;;;5.50;;
5333;SDS011;2689;50.954;7.116;2022-11-11T01:59:49;6.10;;;5.03;;
5333;SDS011;2689;50.954;7.116;2022-11-11T02:02:25;9.73;;;5.67;;
5333;SDS011;2689;50.954;7.116;2022-11-11T02:04:59;10.40;;;4.83;;
5333;SDS011;2689;50.954;7.116;2022-11-11T02:07:52;8.57;;;5.03;;
5333;SDS011;2689;50.954;7.116;2022-11-11T02:10:21;8.50;;;5.00;;
5333;SDS011;2689;50.954;7.116;2022-11-11T02:12:50;10.40;;;5.03;;
5333;SDS011;2689;50.954;7.116;2022-11-11T02:15:36;6.50;;;5.10;;
5333;SDS011;2689;50.954;7.116;2022-11-11T02:18:04;15.03;;;5.63;;
5333;SDS011;2689;50.954;7.116;2022-11-11T02:20:32;11.37;;;4.53;;
5333;SDS011;2689;50.954;7.116;2022-11-11T02:23:02;7.43;;;5.00;;
5333;SDS011;2689;50.954;7.116;2022-11-11T02:25:33;7.80;;;4.70;;
5333;SDS011;2689;50.954;7.116;2022-11-11T02:28:04;7.10;;;4.80;;
5333;SDS011;2689;50.954;7.116;2022-11-11T02:30:33;8.80;;;5.17;;
5333;SDS011;2689;50.954;7.116;2022-11-11T02:32:59;11.10;;;4.50;;
5333;SDS011;2689;50.954;7.116;2022-11-11T02:35:29;6.67;;;5.13;;
5333;SDS011;2689;50.954;7.116;2022-11-11T02:37:58;9.10;;;4.87;;
5333;SDS011;2689;50.954;7.116;2022-11-11T02:40:32;14.00;;;5.00;;
5333;SDS011;2689;50.954;7.116;2022-11-11T02:43:03;6.97;;;4.80;;
5333;SDS011;2689;50.954;7.116;2022-11-11T02:45:29;16.23;;;5.67;;
5333;SDS011;2689;50.954;7.116;2022-11-11T02:47:56;12.40;;;5.10;;
5333;SDS011;2689;50.954;7.116;2022-11-11T02:50:22;8.43;;;5.23;;
5333;SDS011;2689;50.954;7.116;2022-11-11T02:52:49;7.27;;;4.70;;
5333;SDS011;2689;50.954;7.116;2022-11-11T02:55:16;10.80;;;5.20;;
5333;SDS011;2689;50.954;7.116;2022-11-11T02:57:44;9.10;;;4.70;;
5333;SDS011;2689;50.954;7.116;2022-11-11T03:00:11;7.40;;;5.20;;
5333;SDS011;2689;50.954;7.116;2022-11-11T03:02:39;8.43;;;5.57;;
5333;SDS011;2689;50.954;7.116;2022-11-11T03:05:06;12.10;;;5.50;;
5333;SDS011;2689;50.954;7.116;2022-11-11T03:07:33;10.80;;;5.33;;
5333;SDS011;2689;50.954;7.116;2022-11-11T03:10:00;10.73;;;5.03;;
5333;SDS011;2689;50.954;7.116;2022-11-11T03:12:26;7.00;;;4.47;;
5333;SDS011;2689;50.954;7.116;2022-11-11T03:14:54;7.43;;;5.37;;
5333;SDS011;2689;50.954;7.116;2022-11-11T03:17:21;9.20;;;5.80;;
5333;SDS011;2689;50.954;7.116;2022-11-11T03:20:06;7.40;;;5.50;;
5333;SDS011;2689;50.954;7.116;2022-11-11T03:22:58;8.93;;;5.27;;
5333;SDS011;2689;50.954;7.116;2022-11-11T03:25:26;7.37;;;4.43;;
5333;SDS011;2689;50.954;7.116;2022-11-11T03:28:06;12.23;;;5.60;;
5333;SDS011;2689;50.954;7.116;2022-11-11T03:30:36;7.57;;;5.10;;
5333;SDS011;2689;50.954;7.116;2022-11-11T03:33:03;9.10;;;5.80;;
5333;SDS011;2689;50.954;7.116;2022-11-11T03:35:30;7.40;;;5.30;;
5333;SDS011;2689;50.954;7.116;2022-11-11T03:37:57;8.07;;;4.60;;
5333;SDS011;2689;50.954;7.116;2022-11-11T03:40:56;9.30;;;5.23;;
5333;SDS011;2689;50.954;7.116;2022-11-11T03:43:24;7.70;;;4.77;;
5333;SDS011;2689;50.954;7.116;2022-11-11T03:45:54;6.60;;;5.43;;
5333;SDS011;2689;50.954;7.116;2022-11-11T03:48:22;5.53;;;4.33;;
5333;SDS011;2689;50.954;7.116;2022-11-11T03:50:49;7.40;;;5.23;;
5333;SDS011;2689;50.954;7.116;2022-11-11T03:53:17;9.67;;;5.10;;
5333;SDS011;2689;50.954;7.116;2022-11-11T03:55:45;7.67;;;4.70;;
5333;SDS011;2689;50.954;7.116;2022-11-11T03:58:12;10.97;;;5.57;;
5333;SDS011;2689;50.954;7.116;2022-11-11T04:00:38;7.23;;;5.00;;
5333;SDS011;2689;50.954;7.116;2022-11-11T04:03:08;8.83;;;5.60;;
5333;SDS011;2689;50.954;7.116;2022-11-11T04:05:54;13.53;;;5.20;;
5333;SDS011;2689;50.954;7.116;2022-11-11T04:08:41;9.37;;;5.30;;
5333;SDS011;2689;50.954;7.116;2022-11-11T04:11:26;10.50;;;5.50;;
5333;SDS011;2689;50.954;7.116;2022-11-11T04:13:55;9.57;;;5.47;;
5333;SDS011;2689;50.954;7.116;2022-11-11T04:16:42;9.20;;;5.70;;
5333;SDS011;2689;50.954;7.116;2022-11-11T04:19:11;8.07;;;5.50;;
5333;SDS011;2689;50.954;7.116;2022-11-11T04:21:55;8.57;;;5.10;;
5333;SDS011;2689;50.954;7.116;2022-11-11T04:24:22;8.17;;;5.57;;
5333;SDS011;2689;50.954;7.116;2022-11-11T04:27:07;9.47;;;5.00;;
5333;SDS011;2689;50.954;7.116;2022-11-11T04:29:35;9.00;;;5.10;;
5333;SDS011;2689;50.954;7.116;2022-11-11T04:32:02;12.70;;;5.20;;
5333;SDS011;2689;50.954;7.116;2022-11-11T04:34:49;10.57;;;5.83;;
5333;SDS011;2689;50.954;7.116;2022-11-11T04:37:17;8.70;;;5.80;;
5333;SDS011;2689;50.954;7.116;2022-11-11T04:39:44;9.40;;;5.60;;
5333;SDS011;2689;50.954;7.116;2022-11-11T04:42:30;10.90;;;5.43;;
5333;SDS011;2689;50.954;7.116;2022-11-11T04:44:58;10.47;;;6.97;;
5333;SDS011;2689;50.954;7.116;2022-11-11T04:47:52;9.67;;;5.90;;
5333;SDS011;2689;50.954;7.116;2022-11-11T04:50:22;8.57;;;6.07;;
5333;SDS011;2689;50.954;7.116;2022-11-11T04:52:50;5.93;;;4.90;;
5333;SDS011;2689;50.954;7.116;2022-11-11T04:55:17;9.90;;;5.63;;
5333;SDS011;2689;50.954;7.116;2022-11-11T04:58:01;12.13;;;5.87;;
5333;SDS011;2689;50.954;7.116;2022-11-11T05:00:28;9.33;;;5.63;;
5333;SDS011;2689;50.954;7.116;2022-11-11T05:02:55;9.87;;;5.70;;
5333;SDS011;2689;50.954;7.116;2022-11-11T05:05:41;11.70;;;6.60;;
5333;SDS011;2689;50.954;7.116;2022-11-11T05:08:27;8.63;;;6.20;;
5333;SDS011;2689;50.954;7.116;2022-11-11T05:11:11;9.77;;;6.23;;
5333;SDS011;2689;50.954;7.116;2022-11-11T05:13:38;8.23;;;5.50;;
5333;SDS011;2689;50.954;7.116;2022-11-11T05:16:24;9.07;;;5.87;;
5333;SDS011;2689;50.954;7.116;2022-11-11T05:19:10;8.67;;;5.40;;
5333;SDS011;2689;50.954;7.116;2022-11-11T05:21:59;9.97;;;5.67;;
5333;SDS011;2689;50.954;7.116;2022-11-11T05:24:32;7.63;;;5.97;;
5333;SDS011;2689;50.954;7.116;2022-11-11T05:27:16;9.63;;;5.60;;
5333;SDS011;2689;50.954;7.116;2022-11-11T05:29:45;13.77;;;5.70;;
5333;SDS011;2689;50.954;7.116;2022-11-11T05:32:14;11.60;;;5.50;;
5333;SDS011;2689;50.954;7.116;2022-11-11T05:34:41;9.07;;;5.87;;
5333;SDS011;2689;50.954;7.116;2022-11-11T05:37:10;9.27;;;5.57;;
5333;SDS011;2689;50.954;7.116;2022-11-11T05:39:37;8.57;;;5.63;;
5333;SDS011;2689;50.954;7.116;2022-11-11T05:42:04;7.63;;;5.03;;
5333;SDS011;2689;50.954;7.116;2022-11-11T05:44:31;9.00;;;5.40;;
5333;SDS011;2689;50.954;7.116;2022-11-11T05:46:57;7.10;;;5.60;;
5333;SDS011;2689;50.954;7.116;2022-11-11T05:49:24;10.23;;;5.50;;
5333;SDS011;2689;50.954;7.116;2022-11-11T05:51:51;8.80;;;5.40;;
5333;SDS011;2689;50.954;7.116;2022-11-11T05:54:21;8.73;;;5.30;;
5333;SDS011;2689;50.954;7.116;2022-11-11T05:56:48;14.60;;;5.70;;
5333;SDS011;2689;50.954;7.116;2022-11-11T05:59:15;8.10;;;5.50;;
5333;SDS011;2689;50.954;7.116;2022-11-11T06:01:42;7.40;;;5.37;;
5333;SDS011;2689;50.954;7.116;2022-11-11T06:04:09;11.60;;;6.87;;
5333;SDS011;2689;50.954;7.116;2022-11-11T06:06:36;7.03;;;5.60;;
5333;SDS011;2689;50.954;7.116;2022-11-11T06:09:03;12.07;;;5.70;;
5333;SDS011;2689;50.954;7.116;2022-11-11T06:11:31;10.23;;;5.27;;
5333;SDS011;2689;50.954;7.116;2022-11-11T06:13:58;8.57;;;5.33;;
5333;SDS011;2689;50.954;7.116;2022-11-11T06:16:25;9.10;;;5.00;;
5333;SDS011;2689;50.954;7.116;2022-11-11T06:18:52;6.83;;;4.83;;
5333;SDS011;2689;50.954;7.116;2022-11-11T06:21:19;10.73;;;5.83;;
5333;SDS011;2689;50.954;7.116;2022-11-11T06:23:45;7.97;;;6.00;;
5333;SDS011;2689;50.954;7.116;2022-11-11T06:26:12;9.23;;;5.43;;
5333;SDS011;2689;50.954;7.116;2022-11-11T06:28:42;11.63;;;6.03;;
5333;SDS011;2689;50.954;7.116;2022-11-11T06:31:11;12.17;;;6.57;;
5333;SDS011;2689;50.954;7.116;2022-11-11T06:33:40;9.30;;;5.93;;
5333;SDS011;2689;50.954;7.116;2022-11-11T06:36:08;8.63;;;5.10;;
5333;SDS011;2689;50.954;7.116;2022-11-11T06:38:36;11.20;;;5.40;;
5333;SDS011;2689;50.954;7.116;2022-11-11T06:41:03;9.27;;;5.80;;
5333;SDS011;2689;50.954;7.116;2022-11-11T06:43:30;11.73;;;6.37;;
5333;SDS011;2689;50.954;7.116;2022-11-11T06:45:58;11.27;;;6.67;;
5333;SDS011;2689;50.954;7.116;2022-11-11T06:48:25;10.30;;;5.90;;
5333;SDS011;2689;50.954;7.116;2022-11-11T06:50:53;9.20;;;5.90;;
5333;SDS011;2689;50.954;7.116;2022-11-11T06:53:21;13.50;;;5.80;;
5333;SDS011;2689;50.954;7.116;2022-11-11T06:55:50;7.80;;;5.20;;
5333;SDS011;2689;50.954;7.116;2022-11-11T06:58:18;10.03;;;5.23;;
5333;SDS011;2689;50.954;7.116;2022-11-11T07:00:46;7.33;;;5.23;;
5333;SDS011;2689;50.954;7.116;2022-11-11T07:03:15;8.60;;;5.80;;
5333;SDS011;2689;50.954;7.116;2022-11-11T07:05:43;7.40;;;5.17;;
5333;SDS011;2689;50.954;7.116;2022-11-11T07:08:11;7.10;;;5.23;;
5333;SDS011;2689;50.954;7.116;2022-11-11T07:10:42;8.50;;;5.77;;
5333;SDS011;2689;50.954;7.116;2022-11-11T07:13:10;7.53;;;4.77;;
5333;SDS011;2689;50.954;7.116;2022-11-11T07:15:38;9.70;;;5.10;;
5333;SDS011;2689;50.954;7.116;2022-11-11T07:18:05;8.00;;;5.23;;
5333;SDS011;2689;50.954;7.116;2022-11-11T07:20:33;23.23;;;16.00;;
5333;SDS011;2689;50.954;7.116;2022-11-11T07:23:01;13.33;;;6.70;;
5333;SDS011;2689;50.954;7.116;2022-11-11T07:25:28;8.27;;;5.37;;
5333;SDS011;2689;50.954;7.116;2022-11-11T07:27:55;8.10;;;5.70;;
5333;SDS011;2689;50.954;7.116;2022-11-11T07:30:22;8.13;;;5.37;;
5333;SDS011;2689;50.954;7.116;2022-11-11T07:32:50;10.80;;;5.43;;
5333;SDS011;2689;50.954;7.116;2022-11-11T07:35:18;7.73;;;6.00;;
5333;SDS011;2689;50.954;7.116;2022-11-11T07:37:47;9.63;;;5.80;;
5333;SDS011;2689;50.954;7.116;2022-11-11T07:40:15;11.23;;;6.07;;
5333;SDS011;2689;50.954;7.116;2022-11-11T07:42:43;7.37;;;5.30;;
5333;SDS011;2689;50.954;7.116;2022-11-11T07:45:11;8.10;;;5.60;;
5333;SDS011;2689;50.954;7.116;2022-11-11T07:47:39;9.13;;;5.87;;
5333;SDS011;2689;50.954;7.116;2022-11-11T07:50:08;7.27;;;5.07;;
5333;SDS011;2689;50.954;7.116;2022-11-11T07:52:35;8.97;;;5.90;;
5333;SDS011;2689;50.954;7.116;2022-11-11T07:55:04;9.53;;;5.07;;
5333;SDS011;2689;50.954;7.116;2022-11-11T07:57:31;10.40;;;5.03;;
5333;SDS011;2689;50.954;7.116;2022-11-11T07:59:58;6.90;;;5.47;;
5333;SDS011;2689;50.954;7.116;2022-11-11T08:02:24;10.83;;;5.67;;
5333;SDS011;2689;50.954;7.116;2022-11-11T08:04:51;9.77;;;5.67;;
5333;SDS011;2689;50.954;7.116;2022-11-11T08:07:18;8.53;;;5.10;;
5333;SDS011;2689;50.954;7.116;2022-11-11T08:09:45;7.90;;;5.90;;
5333;SDS011;2689;50.954;7.116;2022-11-11T08:12:13;10.83;;;5.53;;
5333;SDS011;2689;50.954;7.116;2022-11-11T08:14:57;7.30;;;5.20;;
5333;SDS011;2689;50.954;7.116;2022-11-11T08:17:24;10.20;;;5.40;;
5333;SDS011;2689;50.954;7.116;2022-11-11T08:19:51;6.83;;;5.23;;
5333;SDS011;2689;50.954;7.116;2022-11-11T08:22:18;8.10;;;4.77;;
5333;SDS011;2689;50.954;7.116;2022-11-11T08:24:44;6.40;;;5.57;;
5333;SDS011;2689;50.954;7.116;2022-11-11T08:27:12;8.70;;;5.30;;
5333;SDS011;2689;50.954;7.116;2022-11-11T08:29:39;5.37;;;4.60;;
5333;SDS011;2689;50.954;7.116;2022-11-11T08:32:06;6.03;;;4.30;;
5333;SDS011;2689;50.954;7.116;2022-11-11T08:34:33;8.10;;;5.40;;
5333;SDS011;2689;50.954;7.116;2022-11-11T08:37:00;9.10;;;4.80;;
5333;SDS011;2689;50.954;7.116;2022-11-11T08:39:27;8.77;;;4.43;;
5333;SDS011;2689;50.954;7.116;2022-11-11T08:41:53;8.30;;;4.30;;
5333;SDS011;2689;50.954;7.116;2022-11-11T08:44:21;7.03;;;4.70;;
5333;SDS011;2689;50.954;7.116;2022-11-11T08:46:48;8.63;;;6.03;;
5333;SDS011;2689;50.954;7.116;2022-11-11T08:49:15;6.17;;;4.60;;
5333;SDS011;2689;50.954;7.116;2022-11-11T08:51:42;5.67;;;4.33;;
5333;SDS011;2689;50.954;7.116;2022-11-11T08:54:08;7.43;;;4.70;;
5333;SDS011;2689;50.954;7.116;2022-11-11T08:56:35;7.80;;;4.83;;
5333;SDS011;2689;50.954;7.116;2022-11-11T08:59:02;9.73;;;5.47;;
5333;SDS011;2689;50.954;7.116;2022-11-11T09:01:30;6.50;;;5.10;;
5333;SDS011;2689;50.954;7.116;2022-11-11T09:03:57;6.30;;;5.13;;
5333;SDS011;2689;50.954;7.116;2022-11-11T09:06:24;9.27;;;5.30;;
5333;SDS011;2689;50.954;7.116;2022-11-11T09:08:51;7.97;;;5.73;;
5333;SDS011;2689;50.954;7.116;2022-11-11T09:11:18;7.83;;;5.30;;
5333;SDS011;2689;50.954;7.116;2022-11-11T09:13:45;10.27;;;5.40;;
5333;SDS011;2689;50.954;7.116;2022-11-11T09:16:12;6.30;;;4.93;;
5333;SDS011;2689;50.954;7.116;2022-11-11T09:18:40;8.40;;;5.30;;
5333;SDS011;2689;50.954;7.116;2022-11-11T09:21:07;10.20;;;4.80;;
5333;SDS011;2689;50.954;7.116;2022-11-11T09:23:34;9.50;;;4.87;;
5333;SDS011;2689;50.954;7.116;2022-11-11T09:26:02;9.30;;;5.10;;
5333;SDS011;2689;50.954;7.116;2022-11-11T09:28:29;5.10;;;3.90;;
5333;SDS011;2689;50.954;7.116;2022-11-11T09:30:58;5.83;;;4.47;;
5333;SDS011;2689;50.954;7.116;2022-11-11T09:33:25;8.47;;;4.67;;
5333;SDS011;2689;50.954;7.116;2022-11-11T09:35:53;7.90;;;4.73;;
5333;SDS011;2689;50.954;7.116;2022-11-11T09:38:22;6.77;;;4.63;;
5333;SDS011;2689;50.954;7.116;2022-11-11T09:40:52;6.47;;;4.47;;
5333;SDS011;2689;50.954;7.116;2022-11-11T09:43:35;7.30;;;3.80;;
5333;SDS011;2689;50.954;7.116;2022-11-11T09:46:22;5.53;;;3.67;;
5333;SDS011;2689;50.954;7.116;2022-11-11T09:49:16;18.20;;;7.17;;
5333;SDS011;2689;50.954;7.116;2022-11-11T09:51:54;11.97;;;4.60;;
5333;SDS011;2689;50.954;7.116;2022-11-11T09:54:27;6.63;;;3.93;;
5333;SDS011;2689;50.954;7.116;2022-11-11T09:57:00;6.67;;;4.30;;
5333;SDS011;2689;50.954;7.116;2022-11-11T09:59:32;8.47;;;3.73;;
5333;SDS011;2689;50.954;7.116;2022-11-11T10:02:07;7.30;;;4.17;;
5333;SDS011;2689;50.954;7.116;2022-11-11T10:04:44;5.30;;;4.00;;
5333;SDS011;2689;50.954;7.116;2022-11-11T10:07:22;8.33;;;4.93;;
5333;SDS011;2689;50.954;7.116;2022-11-11T10:09:54;11.93;;;4.07;;
5333;SDS011;2689;50.954;7.116;2022-11-11T10:12:25;5.27;;;3.60;;
5333;SDS011;2689;50.954;7.116;2022-11-11T10:14:59;8.23;;;4.10;;
5333;SDS011;2689;50.954;7.116;2022-11-11T10:17:28;6.50;;;3.90;;
5333;SDS011;2689;50.954;7.116;2022-11-11T10:20:02;8.60;;;3.87;;
5333;SDS011;2689;50.954;7.116;2022-11-11T10:22:39;7.43;;;4.30;;
5333;SDS011;2689;50.954;7.116;2022-11-11T10:25:14;5.33;;;3.73;;
5333;SDS011;2689;50.954;7.116;2022-11-11T10:27:46;6.60;;;3.80;;
5333;SDS011;2689;50.954;7.116;2022-11-11T10:30:17;5.00;;;3.20;;
5333;SDS011;2689;50.954;7.116;2022-11-11T10:32:47;5.10;;;3.77;;
5333;SDS011;2689;50.954;7.116;2022-11-11T10:35:19;5.90;;;4.03;;
5333;SDS011;2689;50.954;7.116;2022-11-11T10:37:50;6.30;;;3.97;;
5333;SDS011;2689;50.954;7.116;2022-11-11T10:40:24;5.13;;;3.53;;
5333;SDS011;2689;50.954;7.116;2022-11-11T10:42:54;4.83;;;3.30;;
5333;SDS011;2689;50.954;7.116;2022-11-11T10:45:22;8.33;;;4.10;;
5333;SDS011;2689;50.954;7.116;2022-11-11T10:47:53;7.90;;;3.60;;
5333;SDS011;2689;50.954;7.116;2022-11-11T10:50:25;12.27;;;5.50;;
5333;SDS011;2689;50.954;7.116;2022-11-11T10:52:59;8.20;;;4.30;;
5333;SDS011;2689;50.954;7.116;2022-11-11T10:55:34;4.13;;;2.90;;
5333;SDS011;2689;50.954;7.116;2022-11-11T10:58:07;11.47;;;3.20;;
5333;SDS011;2689;50.954;7.116;2022-11-11T11:00:40;6.80;;;3.50;;
5333;SDS011;2689;50.954;7.116;2022-11-11T11:03:12;4.00;;;2.53;;
5333;SDS011;2689;50.954;7.116;2022-11-11T11:05:46;4.43;;;2.80;;
5333;SDS011;2689;50.954;7.116;2022-11-11T11:08:20;4.60;;;2.77;;
5333;SDS011;2689;50.954;7.116;2022-11-11T11:10:51;8.77;;;3.47;;
5333;SDS011;2689;50.954;7.116;2022-11-11T11:13:23;7.20;;;3.43;;
5333;SDS011;2689;50.954;7.116;2022-11-11T11:15:56;7.03;;;3.63;;
5333;SDS011;2689;50.954;7.116;2022-11-11T11:18:25;3.90;;;3.20;;
5333;SDS011;2689;50.954;7.116;2022-11-11T11:20:56;3.03;;;2.60;;
5333;SDS011;2689;50.954;7.116;2022-11-11T11:23:38;5.50;;;4.17;;
5333;SDS011;2689;50.954;7.116;2022-11-11T11:26:07;4.03;;;2.57;;
5333;SDS011;2689;50.954;7.116;2022-11-11T11:28:35;4.60;;;2.80;;
5333;SDS011;2689;50.954;7.116;2022-11-11T11:31:19;4.00;;;2.47;;
5333;SDS011;2689;50.954;7.116;2022-11-11T11:34:00;4.17;;;2.43;;
5333;SDS011;2689;50.954;7.116;2022-11-11T11:36:27;4.73;;;2.50;;
5333;SDS011;2689;50.954;7.116;2022-11-11T11:38:55;4.07;;;2.27;;
5333;SDS011;2689;50.954;7.116;2022-11-11T11:41:34;4.10;;;2.60;;
5333;SDS011;2689;50.954;7.116;2022-11-11T11:44:02;5.37;;;3.10;;
5333;SDS011;2689;50.954;7.116;2022-11-11T11:46:49;12.60;;;6.50;;
5333;SDS011;2689;50.954;7.116;2022-11-11T11:49:22;7.50;;;3.20;;
5333;SDS011;2689;50.954;7.116;2022-11-11T11:51:59;3.83;;;2.83;;
5333;SDS011;2689;50.954;7.116;2022-11-11T11:54:40;9.43;;;2.73;;
5333;SDS011;2689;50.954;7.116;2022-11-11T11:57:19;4.67;;;2.27;;
5333;SDS011;2689;50.954;7.116;2022-11-11T11:59:57;4.83;;;2.13;;
5333;SDS011;2689;50.954;7.116;2022-11-11T12:02:37;2.53;;;1.73;;
5333;SDS011;2689;50.954;7.116;2022-11-11T12:05:20;3.10;;;1.90;;
5333;SDS011;2689;50.954;7.116;2022-11-11T12:07:57;6.23;;;2.57;;
5333;SDS011;2689;50.954;7.116;2022-11-11T12:10:38;4.37;;;2.53;;
5333;SDS011;2689;50.954;7.116;2022-11-11T12:13:16;5.30;;;2.70;;
5333;SDS011;2689;50.954;7.116;2022-11-11T12:15:55;5.37;;;2.30;;
5333;SDS011;2689;50.954;7.116;2022-11-11T12:18:37;10.13;;;4.20;;
5333;SDS011;2689;50.954;7.116;2022-11-11T12:21:13;3.00;;;1.90;;
5333;SDS011;2689;50.954;7.116;2022-11-11T12:23:45;4.73;;;3.17;;
5333;SDS011;2689;50.954;7.116;2022-11-11T12:26:24;2.53;;;2.00;;
5333;SDS011;2689;50.954;7.116;2022-11-11T12:29:02;5.00;;;2.20;;
5333;SDS011;2689;50.954;7.116;2022-11-11T12:31:46;3.70;;;2.17;;
5333;SDS011;2689;50.954;7.116;2022-11-11T12:34:26;5.53;;;2.57;;
5333;SDS011;2689;50.954;7.116;2022-11-11T12:37:05;4.00;;;2.07;;
5333;SDS011;2689;50.954;7.116;2022-11-11T12:39:45;4.43;;;2.13;;
5333;SDS011;2689;50.954;7.116;2022-11-11T12:42:21;6.13;;;1.90;;
5333;SDS011;2689;50.954;7.116;2022-11-11T12:45:00;3.70;;;2.20;;
5333;SDS011;2689;50.954;7.116;2022-11-11T12:47:36;5.80;;;2.60;;
5333;SDS011;2689;50.954;7.116;2022-11-11T12:50:12;5.37;;;1.83;;
5333;SDS011;2689;50.954;7.116;2022-11-11T12:52:48;2.53;;;1.67;;
5333;SDS011;2689;50.954;7.116;2022-11-11T12:55:28;5.03;;;1.70;;
5333;SDS011;2689;50.954;7.116;2022-11-11T12:58:09;3.43;;;1.53;;
5333;SDS011;2689;50.954;7.116;2022-11-11T13:00:50;2.60;;;1.50;;
5333;SDS011;2689;50.954;7.116;2022-11-11T13:03:33;7.23;;;2.10;;
5333;SDS011;2689;50.954;7.116;2022-11-11T13:06:14;3.60;;;1.60;;
5333;SDS011;2689;50.954;7.116;2022-11-11T13:09:09;4.07;;;1.93;;
5333;SDS011;2689;50.954;7.116;2022-11-11T13:12:01;5.83;;;1.70;;
5333;SDS011;2689;50.954;7.116;2022-11-11T13:14:46;2.50;;;1.30;;
5333;SDS011;2689;50.954;7.116;2022-11-11T13:17:19;2.43;;;1.10;;
5333;SDS011;2689;50.954;7.116;2022-11-11T13:19:48;2.80;;;1.70;;
5333;SDS011;2689;50.954;7.116;2022-11-11T13:22:20;3.00;;;1.70;;
5333;SDS011;2689;50.954;7.116;2022-11-11T13:24:49;3.43;;;1.93;;
5333;SDS011;2689;50.954;7.116;2022-11-11T13:27:18;3.40;;;1.60;;
5333;SDS011;2689;50.954;7.116;2022-11-11T13:30:04;3.43;;;1.50;;
5333;SDS011;2689;50.954;7.116;2022-11-11T13:33:01;5.27;;;4.17;;
5333;SDS011;2689;50.954;7.116;2022-11-11T13:35:33;3.30;;;1.57;;
5333;SDS011;2689;50.954;7.116;2022-11-11T13:38:02;2.70;;;1.30;;
5333;SDS011;2689;50.954;7.116;2022-11-11T13:40:34;4.43;;;1.97;;
5333;SDS011;2689;50.954;7.116;2022-11-11T13:43:04;2.70;;;1.27;;
5333;SDS011;2689;50.954;7.116;2022-11-11T13:45:55;3.70;;;1.40;;
5333;SDS011;2689;50.954;7.116;2022-11-11T13:48:25;2.80;;;1.80;;
5333;SDS011;2689;50.954;7.116;2022-11-11T13:53:44;3.00;;;1.77;;
5333;SDS011;2689;50.954;7.116;2022-11-11T13:56:18;1.80;;;1.30;;
5333;SDS011;2689;50.954;7.116;2022-11-11T13:58:48;2.90;;;1.20;;
5333;SDS011;2689;50.954;7.116;2022-11-11T14:01:17;4.63;;;2.43;;
5333;SDS011;2689;50.954;7.116;2022-11-11T14:03:57;2.03;;;1.40;;
5333;SDS011;2689;50.954;7.116;2022-11-11T14:12:18;2.80;;;1.67;;
5333;SDS011;2689;50.954;7.116;2022-11-11T14:14:53;2.57;;;1.43;;
5333;SDS011;2689;50.954;7.116;2022-11-11T14:17:23;2.63;;;1.50;;
5333;SDS011;2689;50.954;7.116;2022-11-11T14:19:52;3.20;;;1.40;;
5333;SDS011;2689;50.954;7.116;2022-11-11T14:22:28;4.40;;;1.30;;
5333;SDS011;2689;50.954;7.116;2022-11-11T14:27:46;3.43;;;1.47;;
5333;SDS011;2689;50.954;7.116;2022-11-11T14:33:12;4.20;;;1.43;;
5333;SDS011;2689;50.954;7.116;2022-11-11T14:35:47;4.17;;;1.30;;
5333;SDS011;2689;50.954;7.116;2022-11-11T14:38:28;3.03;;;1.53;;
5333;SDS011;2689;50.954;7.116;2022-11-11T14:50:07;3.73;;;2.00;;
5333;SDS011;2689;50.954;7.116;2022-11-11T14:53:11;3.43;;;1.77;;
5333;SDS011;2689;50.954;7.116;2022-11-11T14:55:42;2.10;;;1.00;;
5333;SDS011;2689;50.954;7.116;2022-11-11T14:58:17;2.53;;;1.50;;
5333;SDS011;2689;50.954;7.116;2022-11-11T15:00:47;2.20;;;1.03;;
5333;SDS011;2689;50.954;7.116;2022-11-11T15:03:16;2.40;;;1.27;;
5333;SDS011;2689;50.954;7.116;2022-11-11T15:05:53;2.07;;;1.20;;
5333;SDS011;2689;50.954;7.116;2022-11-11T15:08:27;5.43;;;1.50;;
5333;SDS011;2689;50.954;7.116;2022-11-11T15:11:11;2.00;;;1.40;;
5333;SDS011;2689;50.954;7.116;2022-11-11T15:13:50;3.57;;;1.70;;
5333;SDS011;2689;50.954;7.116;2022-11-11T15:16:29;3.10;;;1.87;;
5333;SDS011;2689;50.954;7.116;2022-11-11T15:22:06;2.50;;;1.30;;
5333;SDS011;2689;50.954;7.116;2022-11-11T15:24:44;3.73;;;1.63;;
5333;SDS011;2689;50.954;7.116;2022-11-11T15:27:20;3.60;;;2.23;;
5333;SDS011;2689;50.954;7.116;2022-11-11T15:30:04;3.87;;;1.63;;
5333;SDS011;2689;50.954;7.116;2022-11-11T15:32:39;4.63;;;1.90;;
5333;SDS011;2689;50.954;7.116;2022-11-11T15:35:25;2.77;;;1.87;;
5333;SDS011;2689;50.954;7.116;2022-11-11T15:38:00;2.50;;;1.70;;
5333;SDS011;2689;50.954;7.116;2022-11-11T15:40:29;3.93;;;2.00;;
5333;SDS011;2689;50.954;7.116;2022-11-11T15:43:09;11.47;;;4.60;;
5333;SDS011;2689;50.954;7.116;2022-11-11T15:45:42;12.13;;;4.77;;
5333;SDS011;2689;50.954;7.116;2022-11-11T15:48:13;13.13;;;5.13;;
5333;SDS011;2689;50.954;7.116;2022-11-11T15:50:43;3.70;;;2.37;;
5333;SDS011;2689;50.954;7.116;2022-11-11T15:53:12;7.80;;;3.17;;
5333;SDS011;2689;50.954;7.116;2022-11-11T15:55:40;4.17;;;2.60;;
5333;SDS011;2689;50.954;7.116;2022-11-11T15:58:17;5.40;;;2.77;;
5333;SDS011;2689;50.954;7.116;2022-11-11T16:00:51;4.17;;;2.27;;
5333;SDS011;2689;50.954;7.116;2022-11-11T16:03:18;3.77;;;2.00;;
5333;SDS011;2689;50.954;7.116;2022-11-11T16:05:47;8.23;;;2.70;;
5333;SDS011;2689;50.954;7.116;2022-11-11T16:08:16;3.90;;;2.77;;
5333;SDS011;2689;50.954;7.116;2022-11-11T16:10:45;6.33;;;3.90;;
5333;SDS011;2689;50.954;7.116;2022-11-11T16:13:19;5.90;;;3.07;;